Latest Weather Observations for Port Macquarie Airport

IDN60801

Issued at 12:04 pm EDT Tuesday 23 December 2014 (issued every 30 minutes, with the page automatically refreshed every 10 minutes)

About weather observations | Map of weather stations | Latest weather observations for NSW | Other Formats
Station Details ID: 060139 Name: PORT MACQUARIE AIRPORT AWS Lat: -31.43 Lon: 152.87 Height: 4.2 m
Data from the previous 72 hours. | See also: Recent months at Port Macquarie Airport
Date/Time
EDT
Temp
°C
App
Temp
°C
Dew
Point
Rel
Hum
%
Delta-T
°C
Wind Press
QNH
hPa
Press
MSL
hPa
Rain
since 9 am
mm
Dir
 
Spd
km/h
Gust
km/h
Spd
kts
Gust
kts
23/12:00pm 22.9 22.4 17.8 73 3.2 NE 17 24 9 13 1015.9 1015.9 0.0
23/11:30am 23.6 22.2 16.6 65 4.3 NE 19 26 10 14 1016.1 1016.1 0.0
23/11:00am 24.7 23.2 16.7 61 4.9 NNE 20 26 11 14 1016.3 1016.3 0.0
23/10:30am 25.0 23.8 17.0 61 5.0 NE 19 28 10 15 1016.6 1016.6 0.0
23/10:00am 25.0 23.3 16.2 58 5.4 N 20 28 11 15 1016.4 1016.4 0.0
23/09:30am 24.4 23.8 16.6 61 4.8 NNE 15 20 8 11 1016.6 1016.6 0.0
23/09:00am 24.5 23.9 16.7 61 4.8 NNE 15 20 8 11 1016.7 1016.7 0.0
23/08:30am 23.4 22.3 16.4 64 4.3 N 17 26 9 14 1016.7 1016.7 0.0
23/08:00am 23.2 22.7 17.0 68 3.8 N 15 20 8 11 1016.5 1016.5 0.0
23/07:30am 22.6 22.2 17.1 71 3.4 N 15 19 8 10 1016.2 1016.2 0.0
23/07:00am 21.3 20.9 16.3 73 3.0 NNE 13 17 7 9 1015.9 1015.9 0.0
23/06:30am 20.8 20.9 16.6 77 2.5 N 11 13 6 7 1016.0 1016.0 0.0
23/06:00am 20.4 20.9 16.6 79 2.3 N 9 13 5 7 1015.9 1015.9 0.0
23/05:30am 20.8 21.0 16.8 78 2.4 N 11 15 6 8 1015.4 1015.4 0.0
23/05:00am 20.6 21.2 16.8 79 2.3 N 9 13 5 7 1015.4 1015.4 0.0
23/04:30am 20.5 21.1 16.7 79 2.3 N 9 11 5 6 1015.3 1015.3 0.0
23/04:00am 20.9 21.5 16.9 78 2.4 N 9 11 5 6 1015.3 1015.3 0.0
23/03:30am 21.0 21.3 17.0 78 2.4 NNE 11 19 6 10 1015.2 1015.2 0.0
23/03:00am 20.2 20.8 16.8 81 2.1 NNE 9 11 5 6 1015.4 1015.4 0.0
23/02:30am 20.1 20.2 16.5 80 2.2 NNE 11 13 6 7 1015.8 1015.8 0.0
23/02:00am 20.2 20.8 16.8 81 2.1 N 9 11 5 6 1016.5 1016.5 0.0
23/01:30am 20.6 20.4 16.8 79 2.3 NNE 13 15 7 8 1016.9 1016.9 0.0
23/01:00am 21.3 21.1 16.7 75 2.8 NNE 13 17 7 9 1017.2 1017.2 0.0
23/12:30am 21.5 21.4 16.9 75 2.8 NE 13 17 7 9 1017.3 1017.3 0.0
23/12:00am 20.4 20.5 16.6 79 2.3 NNE 11 15 6 8 1017.5 1017.5 0.0
 
Date/Time
EDT
Temp
°C
App
Temp
°C
Dew
Point
Rel
Hum
%
Delta-T
°C
Wind Press
QNH
hPa
Press
MSL
hPa
Rain
since 9 am
mm
Dir
 
Spd
km/h
Gust
km/h
Spd
kts
Gust
kts
22/11:30pm 20.0 20.4 16.2 79 2.3 NNE 9 11 5 6 1017.9 1017.9 0.0
22/11:00pm 20.5 20.9 16.3 77 2.5 N 9 13 5 7 1018.1 1018.1 0.0
22/10:30pm 21.5 21.2 16.5 73 3.0 NNE 13 20 7 11 1018.1 1018.1 0.0
22/10:00pm 21.6 21.2 16.1 71 3.3 NNE 13 20 7 11 1017.9 1017.9 0.0
22/09:30pm 21.9 21.6 16.4 71 3.3 NNE 13 19 7 10 1018.0 1018.0 0.0
22/09:00pm 22.0 21.3 16.5 71 3.3 NNE 15 20 8 11 1018.1 1018.1 0.0
22/08:30pm 22.3 21.4 16.8 71 3.4 NNE 17 22 9 12 1017.9 1017.9 0.0
22/08:00pm 22.4 21.1 16.7 70 3.5 NE 19 32 10 17 1017.7 1017.7 0.0
22/07:30pm 22.7 21.4 16.9 70 3.5 NE 19 26 10 14 1017.5 1017.5 0.0
22/07:00pm 23.2 21.9 17.2 69 3.7 NE 20 28 11 15 1017.2 1017.2 0.0
22/06:30pm 23.7 22.7 17.9 70 3.6 NE 20 33 11 18 1017.0 1017.0 0.0
22/06:00pm 23.8 22.1 17.3 67 4.0 NE 22 35 12 19 1016.8 1016.8 0.0
22/05:30pm 24.4 22.1 17.6 66 4.2 NE 26 37 14 20 1016.3 1016.3 0.0
22/05:00pm 24.8 22.1 17.5 64 4.5 NE 28 37 15 20 1016.0 1016.0 0.0
22/04:30pm 25.3 22.7 17.7 62 4.8 NE 28 41 15 22 1016.1 1016.1 0.0
22/04:00pm 26.2 23.6 18.6 63 4.8 NE 30 43 16 23 1016.4 1016.4 0.0
22/03:30pm 26.4 24.0 18.3 61 5.1 NE 28 43 15 23 1016.7 1016.7 0.0
22/03:00pm 26.1 22.8 18.0 61 5.1 NE 32 41 17 22 1016.9 1016.9 0.0
22/02:32pm 26.4 23.7 17.5 58 5.6 NE 28 46 15 25 1017.2 1017.2 0.0
22/02:30pm 26.6 24.6 18.2 60 5.3 NE 26 37 14 20 1017.2 1017.2 0.0
22/02:00pm 26.2 23.4 18.3 61 5.0 NE 30 41 16 22 1017.4 1017.4 0.0
22/01:43pm 26.7 24.7 19.1 63 4.9 NE 28 46 15 25 1017.5 1017.5 0.0
22/01:30pm 26.1 23.3 18.2 61 5.0 NE 30 44 16 24 1017.6 1017.6 0.0
22/01:00pm 26.7 23.8 18.0 59 5.5 NE 30 41 16 22 1017.9 1017.9 0.0
22/12:30pm 27.1 24.8 17.6 56 6.0 NE 26 35 14 19 1018.0 1018.0 0.0
22/12:00pm 27.2 25.2 17.4 55 6.1 NE 24 33 13 18 1017.9 1017.9 0.0
22/11:30am 26.9 25.1 17.9 57 5.7 NE 24 33 13 18 1018.1 1018.1 0.0
22/11:00am 26.9 25.0 17.7 57 5.8 ENE 24 32 13 17 1018.0 1018.0 0.0
22/10:30am 27.0 26.7 19.1 62 5.1 NE 19 24 10 13 1018.3 1018.3 0.0
22/10:00am 25.6 24.5 17.3 60 5.2 ENE 19 26 10 14 1018.1 1018.1 0.0
22/09:30am 25.3 25.6 18.0 64 4.6 NE 13 20 7 11 1018.0 1018.0 0.0
22/09:00am 24.9 25.8 18.3 66 4.2 NE 11 20 6 11 1017.7 1017.7 0.0
22/08:30am 23.5 23.8 17.9 71 3.5 NE 13 19 7 10 1017.6 1017.6 0.0
22/08:00am 21.4 22.2 17.2 77 2.6 NNE 9 13 5 7 1017.7 1017.7 0.0
22/07:30am 19.6 20.4 17.4 87 1.3 NNE 9 13 5 7 1017.3 1017.3 0.0
22/07:00am 17.9 20.2 16.8 93 0.7 CALM 0 0 0 0 1017.4 1017.4 0.0
22/06:30am 17.1 17.8 15.6 91 0.9 W 6 7 3 4 1017.1 1017.1 0.0
22/06:00am 17.1 17.5 15.3 89 1.0 N 7 9 4 5 1016.6 1016.6 0.0
22/05:30am 17.9 18.7 17.3 96 0.4 NNE 9 11 5 6 1016.2 1016.2 0.0
22/05:00am 15.7 17.0 14.2 91 0.8 CALM 0 0 0 0 1016.1 1016.1 0.0
22/04:30am 16.1 17.6 14.6 91 0.9 CALM 0 0 0 0 1015.7 1015.7 0.0
22/04:00am 16.9 18.6 15.1 89 1.0 CALM 0 6 0 3 1015.6 1015.6 0.0
22/03:30am 18.3 19.2 16.6 90 1.0 N 7 9 4 5 1015.9 1015.9 0.0
22/03:00am 17.4 17.8 16.3 93 0.7 NNW 9 11 5 6 1016.4 1016.4 0.0
22/02:30am 17.2 17.7 15.0 87 1.3 NNW 6 7 3 4 1016.5 1016.5 0.0
22/02:00am 17.9 18.6 15.5 86 1.4 NNW 6 7 3 4 1016.8 1016.8 0.0
22/01:30am 19.4 20.4 16.8 85 1.6 NNE 7 9 4 5 1017.2 1017.2 0.0
22/01:00am 19.8 20.4 16.8 83 1.8 NNE 9 11 5 6 1017.5 1017.5 0.0
22/12:30am 19.7 20.6 16.5 82 1.9 N 7 7 4 4 1018.3 1018.3 0.0
22/12:00am 20.3 21.2 16.7 80 2.2 NNW 7 9 4 5 1018.6 1018.6 0.0
 
Date/Time
EDT
Temp
°C
App
Temp
°C
Dew
Point
Rel
Hum
%
Delta-T
°C
Wind Press
QNH
hPa
Press
MSL
hPa
Rain
since 9 am
mm
Dir
 
Spd
km/h
Gust
km/h
Spd
kts
Gust
kts
21/11:30pm 21.0 21.3 17.0 78 2.4 N 11 15 6 8 1018.6 1018.6 0.0
21/11:00pm 21.7 22.5 17.3 76 2.7 N 9 11 5 6 1018.7 1018.7 0.0
21/10:30pm 22.2 23.0 17.3 74 3.0 N 9 13 5 7 1018.6 1018.6 0.0
21/10:00pm 22.8 22.1 17.3 71 3.4 NNE 17 20 9 11 1018.3 1018.3 0.0
21/09:30pm 22.6 22.2 17.1 71 3.4 NNE 15 20 8 11 1018.2 1018.2 0.0
21/09:00pm 22.8 21.9 16.8 69 3.7 NNE 17 24 9 13 1018.2 1018.2 0.0
21/08:30pm 22.8 21.3 16.8 69 3.7 NNE 20 28 11 15 1017.7 1017.7 0.0
21/08:00pm 23.0 21.7 16.8 68 3.8 NNE 19 26 10 14 1017.6 1017.6 0.0
21/07:30pm 23.1 21.7 16.6 67 4.0 NE 19 28 10 15 1017.5 1017.5 0.0
21/07:00pm 23.4 22.1 16.9 67 4.0 NE 19 24 10 13 1017.3 1017.3 0.0
21/06:30pm 23.5 22.1 17.0 67 4.0 NE 20 28 11 15 1017.0 1017.0 0.0
21/06:00pm 24.1 22.0 17.1 65 4.3 NE 24 32 13 17 1016.6 1016.6 0.0
21/05:30pm 24.4 22.2 16.9 63 4.6 NE 24 32 13 17 1016.4 1016.4 0.0
21/05:00pm 24.3 22.3 17.3 65 4.3 NE 24 35 13 19 1016.7 1016.7 0.0
21/04:30pm 25.5 23.7 17.9 63 4.8 NE 24 33 13 18 1016.7 1016.7 0.0
21/04:00pm 25.2 22.8 17.4 62 4.9 ENE 26 35 14 19 1016.7 1016.7 0.0
21/03:30pm 25.2 22.7 17.1 60 5.0 NE 26 39 14 21 1016.9 1016.9 0.0
21/03:00pm 25.5 22.7 17.4 61 5.0 ENE 28 39 15 21 1017.1 1017.1 0.0
21/02:30pm 25.9 23.7 18.6 64 4.6 ENE 28 37 15 20 1017.0 1017.0 0.0
21/02:00pm 25.3 22.6 17.5 62 4.9 ENE 28 39 15 21 1017.1 1017.1 0.0
21/01:30pm 26.1 23.9 18.8 64 4.7 ENE 28 41 15 22 1017.2 1017.2 0.0
21/01:00pm 25.2 22.6 17.9 64 4.6 NE 28 39 15 21 1017.5 1017.5 0.0
21/12:30pm 25.5 23.7 19.6 70 3.8 ENE 28 37 15 20 1017.9 1017.9 0.0
21/12:00pm 25.7 24.0 18.9 66 4.3 ENE 26 35 14 19 1018.1 1018.1 0.0
21/11:30am 25.2 24.2 18.9 68 4.0 ENE 22 30 12 16 1018.3 1018.3 0.0
21/11:00am 25.0 24.1 19.1 70 3.8 ENE 22 30 12 16 1018.5 1018.5 0.0
21/10:30am 23.6 23.7 18.3 72 3.3 NE 15 22 8 12 1018.5 1018.5 0.0
21/10:00am 24.5 24.1 18.0 67 4.1 ENE 17 20 9 11 1018.5 1018.5 0.0
21/09:30am 23.7 24.4 17.9 70 3.6 NNE 11 15 6 8 1018.7 1018.7 0.0
21/09:00am 22.9 24.2 17.6 72 3.3 NNE 7 11 4 6 1018.8 1018.8 0.0
21/08:30am 22.6 23.5 17.5 73 3.2 NNE 9 11 5 6 1018.8 1018.8 0.0
21/08:00am 21.5 23.1 16.9 75 2.8 N 4 7 2 4 1018.5 1018.5 0.0
21/07:30am 20.5 22.9 17.1 81 2.1 CALM 0 0 0 0 1018.2 1018.2 0.0
21/07:00am 19.6 22.1 17.2 86 1.5 CALM 0 0 0 0 1018.0 1018.0 0.0
21/06:30am 19.0 21.4 17.1 89 1.2 CALM 0 0 0 0 1017.6 1017.6 0.0
21/06:00am 18.8 21.1 16.8 88 1.2 CALM 0 0 0 0 1017.2 1017.2 0.0
21/05:30am 19.3 21.7 17.1 87 1.3 CALM 0 0 0 0 1017.0 1017.0 0.0
21/05:00am 19.5 21.9 17.1 86 1.5 CALM 0 0 0 0 1016.9 1016.9 0.0
21/04:30am 19.7 22.1 17.1 85 1.6 CALM 0 0 0 0 1016.9 1016.9 0.0
21/04:00am 19.6 21.9 16.8 84 1.7 CALM 0 0 0 0 1016.8 1016.8 0.0
21/03:30am 19.5 21.6 16.3 82 1.9 CALM 0 0 0 0 1016.9 1016.9 0.0
21/03:00am 19.7 21.9 16.5 82 1.9 CALM 0 4 0 2 1017.1 1017.1 0.0
21/02:30am 19.9 21.0 16.7 82 1.9 NW 6 7 3 4 1017.3 1017.3 0.0
21/02:00am 19.9 21.6 16.3 80 2.2 WSW 2 6 1 3 1017.6 1017.6 0.0
21/01:30am 19.9 20.7 16.3 80 2.2 WNW 7 9 4 5 1017.8 1017.8 0.0
21/01:00am 19.9 20.7 16.3 80 2.2 NW 7 9 4 5 1018.2 1018.2 0.0
21/12:30am 19.9 21.2 16.2 79 2.2 WNW 4 11 2 6 1018.4 1018.4 0.0
21/12:00am 20.5 22.7 16.5 78 2.4 CALM 0 0 0 0 1018.6 1018.6 0.0
 
Date/Time
EDT
Temp
°C
App
Temp
°C
Dew
Point
Rel
Hum
%
Delta-T
°C
Wind Press
QNH
hPa
Press
MSL
hPa
Rain
since 9 am
mm
Dir
 
Spd
km/h
Gust
km/h
Spd
kts
Gust
kts
20/11:30pm 20.7 22.4 16.3 76 2.6 SSW 2 7 1 4 1018.8 1018.8 0.0
20/11:00pm 20.8 22.8 16.0 74 2.9 CALM 0 0 0 0 1019.0 1019.0 0.0
20/10:30pm 21.8 22.8 15.4 67 3.8 NE 4 7 2 4 1018.9 1018.9 0.0
20/10:00pm 21.6 22.5 15.2 67 3.8 ESE 4 11 2 6 1018.8 1018.8 0.0
20/09:30pm 22.0 21.9 14.9 64 4.2 E 9 13 5 7 1018.7 1018.7 0.0
20/09:00pm 21.9 22.1 14.8 64 4.2 E 7 15 4 8 1018.3 1018.3 0.0
20/08:30pm 22.0 21.4 14.6 63 4.4 E 11 19 6 10 1017.9 1017.9 0.0
20/08:00pm 22.1 21.1 14.7 63 4.4 E 13 22 7 12 1017.4 1017.4 0.0
20/07:30pm 22.3 21.7 14.7 62 4.5 ESE 11 15 6 8 1017.1 1017.1 0.0
20/07:00pm 22.4 21.7 14.3 60 4.7 E 11 19 6 10 1016.7 1016.7 0.0
20/06:30pm 22.6 22.3 14.4 60 4.8 E 9 13 5 7 1016.1 1016.1 0.0
20/06:00pm 22.7 22.0 14.3 59 4.9 E 11 19 6 10 1015.6 1015.6 0.0
20/05:30pm 22.7 21.6 14.3 59 4.9 ENE 13 17 7 9 1015.3 1015.3 0.0
20/05:00pm 22.9 21.6 14.7 60 4.8 E 15 20 8 11 1015.2 1015.2 0.0
20/04:30pm 23.1 21.4 14.7 59 5.0 E 17 22 9 12 1015.3 1015.3 0.0
20/04:00pm 23.5 21.5 15.0 59 5.1 ESE 19 32 10 17 1015.4 1015.4 0.0
20/03:30pm 23.7 22.1 14.9 57 5.2 ESE 17 26 9 14 1015.7 1015.7 0.0
20/03:00pm 23.8 21.6 15.0 57 5.2 E 20 24 11 13 1015.9 1015.9 0.0
20/02:30pm 25.2 23.9 16.9 60 5.1 E 19 24 10 13 1016.2 1016.2 0.0
20/02:00pm 23.5 22.0 15.3 60 4.9 E 17 22 9 12 1016.4 1016.4 0.0
20/01:30pm 24.5 22.9 15.1 55 5.6 ESE 17 22 9 12 1016.8 1016.8 0.0
20/01:00pm 24.1 22.2 14.2 54 5.8 ESE 17 26 9 14 1017.1 1017.1 0.0
20/12:30pm 23.2 22.6 14.7 58 5.0 SSE 11 19 6 10 1017.6 1017.6 0.0

Other Formats:

Comma delimited format used in spreadsheet applications
http://www.bom.gov.au/fwo/IDN60801/IDN60801.94786.axf

JavaScript Object Notation format (JSON) in row-major order
http://www.bom.gov.au/fwo/IDN60801/IDN60801.94786.json